Hauptseite
METAR-TAF:

METAR-TAF

Flughäfen :

Flugplatz Oberpfaffenhofen

Oberpfaffenhofen, Deutschland

Breite: 48-05N, Länge: 011-17E, Höhe: 600 m

Beobachtung

Neuester Wetterbericht von vor 21 Minuten, um 18:50 UTC
Wind 7 kt aus Ost/Nordost
Temperatur 16°C
Luftfeuchtigkeit 68%
Luftdruck 1020 hPa
Sichtweite 10 km oder mehr

METAR: EDMO 051850Z AUTO 07007KT 9999 // NCD 16/10 Q1020

Zeit: 21:11 (19:11 UTC)

Prognose

Neuester Wetterbericht von vor 2 Stunden und 11 Minuten, um 17:00 UTC
Gültige Prognose vom 05 um 18 UTC bis 06 um 03 UTC
Wind 8 kt aus Ost/Nordost
Sichtweite 10 km oder mehr
Leicht bewölkt in der Höhe von 4500 ft
Übergehend zu
vom 05 um 18 UTC bis 05 um 20 UTC
Wind 3 kt aus Ost

TAF: EDMO 051700Z 0518/0603 07008KT 9999 FEW045 BECMG 0518/0520 08003KT

Wetterbeobachtungen und Prognosen von mehr als 4000 Flughäfen (METAR und TAF Bericht).

Die verfügbaren Stationen werden durch gelbe und rote Markierungen auf der Karte dargestellt.

Führen Sie die Maus auf sie, um den Namen der Station zu sehen.

Darauf klicken, um die Beobachtung von Wetterbeobachtungen und Prognosen zu sehen.

Um die Karte zu ändern : klicken Sie auf den grünen Tasten mit einem schwarzen Kreuz Zum Vergrößern, auf den grünen Button mit einem Gedankenstrich zu verkleinern, oder auf die grünen Pfeile für benachbarte Karten.


METAR-TAF: